createdAt,value
2022-12-23T00:00:03.872Z,1020
2022-12-23T00:15:03.773Z,1012
2022-12-23T00:30:03.233Z,1003
2022-12-23T00:45:02.665Z,996
2022-12-23T01:00:06.198Z,990
2022-12-23T01:15:03.785Z,982
2022-12-23T01:30:03.712Z,976
2022-12-23T01:45:05.177Z,981
2022-12-23T02:00:03.895Z,990
2022-12-23T02:15:01.788Z,996
2022-12-23T02:30:03.205Z,1001
2022-12-23T02:45:05.102Z,1005
2022-12-23T03:00:04.831Z,997
2022-12-23T03:15:02.105Z,991
2022-12-23T03:30:02.766Z,981
2022-12-23T03:45:05.801Z,987
2022-12-23T04:00:02.959Z,988
2022-12-23T04:15:03.016Z,991
2022-12-23T04:30:02.103Z,988
2022-12-23T04:45:04.689Z,987
2022-12-23T05:00:04.052Z,974
2022-12-23T05:15:02.819Z,967
2022-12-23T05:30:01.865Z,965
2022-12-23T05:45:04.093Z,968
2022-12-23T06:00:04.989Z,967
2022-12-23T06:15:04.730Z,972
2022-12-23T06:30:04.091Z,987
2022-12-23T06:45:04.998Z,991
2022-12-23T07:00:03.695Z,996
2022-12-23T07:15:04.649Z,1014
2022-12-23T07:30:05.976Z,1044
2022-12-23T07:45:06.197Z,1068
2022-12-23T08:00:01.815Z,1108
2022-12-23T08:15:03.030Z,1163
2022-12-23T08:30:06.158Z,1223
2022-12-23T08:45:05.834Z,1265
2022-12-23T09:00:02.888Z,1318
2022-12-23T09:15:05.955Z,1360
2022-12-23T09:30:03.125Z,1380
2022-12-23T09:45:05.177Z,1394
2022-12-23T10:00:01.928Z,1404
2022-12-23T10:15:06.149Z,1405
2022-12-23T10:30:02.166Z,1407
2022-12-23T10:45:04.939Z,1412
2022-12-23T11:00:03.251Z,1400
2022-12-23T11:15:03.316Z,1387
2022-12-23T11:30:04.326Z,1361
2022-12-23T11:45:06.242Z,1308
2022-12-23T12:00:05.395Z,1219
2022-12-23T12:15:03.143Z,1150
2022-12-23T12:30:04.135Z,1095
2022-12-23T12:45:03.097Z,1081
2022-12-23T13:00:05.969Z,1094
2022-12-23T13:15:02.320Z,1145
2022-12-23T13:30:03.965Z,1194
2022-12-23T13:45:03.705Z,1235
2022-12-23T14:00:04.344Z,1210
2022-12-23T14:15:06.082Z,1186
2022-12-23T14:30:03.665Z,1173
2022-12-23T14:45:03.389Z,1161
2022-12-23T15:00:06.188Z,1156
2022-12-23T15:15:05.023Z,1217
2022-12-23T15:30:02.110Z,1275
2022-12-23T15:45:01.912Z,1315
2022-12-23T16:00:02.977Z,1345
2022-12-23T16:15:05.301Z,1390
2022-12-23T16:30:01.951Z,1421
2022-12-23T16:45:02.219Z,1427
2022-12-23T17:00:04.892Z,1428
2022-12-23T17:15:04.323Z,1413
2022-12-23T17:30:05.260Z,1377
2022-12-23T17:45:02.979Z,1317
2022-12-23T18:00:05.005Z,1278
2022-12-23T18:15:04.140Z,1253
2022-12-23T18:30:03.110Z,1248
2022-12-23T18:45:03.172Z,1250
2022-12-23T19:00:01.703Z,1259
2022-12-23T19:15:06.080Z,1274
2022-12-23T19:30:05.636Z,1297
2022-12-23T19:45:01.974Z,1307
2022-12-23T20:00:05.131Z,1302
2022-12-23T20:15:04.869Z,1287
2022-12-23T20:30:06.120Z,1265
2022-12-23T20:45:02.705Z,1237
2022-12-23T21:00:01.823Z,1217
2022-12-23T21:15:05.058Z,1203
2022-12-23T21:30:04.218Z,1210
2022-12-23T21:45:02.192Z,1220
2022-12-23T22:00:01.706Z,1220
2022-12-23T22:15:04.911Z,1210
2022-12-23T22:30:02.195Z,1188
2022-12-23T22:45:01.811Z,1140
2022-12-23T23:00:06.080Z,1085
2022-12-23T23:15:04.071Z,1029
2022-12-23T23:30:04.943Z,970
2022-12-23T23:45:05.647Z,923
